Time;durP1;ratioP1;P1;durP2;ratioP2;P2;SDS_P1;SDS_P2;PMS_P1;PMS_P2;Temp;Humidity;BMP_temperature;BMP_pressure;BME280_temperature;BME280_humidity;BME280_pressure;Samples;Min_cycle;Max_cycle;Signal;HPM_P1;HPM_P2
2022/04/02 00:02:18;;;;;;;13.57;12.27;;;;;;;2.05;100.00;94772.94;5027804;28;105297;-54
2022/04/02 00:04:44;;;;;;;13.37;12.07;;;;;;;2.02;100.00;94770.78;5027533;28;105600;-54
2022/04/02 00:07:13;;;;;;;13.80;12.40;;;;;;;2.02;100.00;94768.19;5027942;28;102224;-50
2022/04/02 00:09:40;;;;;;;13.60;12.20;;;;;;;2.01;100.00;94764.75;5027860;28;106597;-55
2022/04/02 00:12:08;;;;;;;13.33;12.03;;;;;;;1.95;100.00;94763.06;5027230;28;105886;-52
2022/04/02 00:14:37;;;;;;;13.00;11.70;;;;;;;2.00;100.00;94762.34;5031079;28;101858;-53
2022/04/02 00:17:05;;;;;;;14.20;12.77;;;;;;;1.99;100.00;94768.63;5027339;28;105627;-53
2022/04/02 00:19:32;;;;;;;13.57;12.27;;;;;;;1.72;100.00;94770.25;5027715;28;101850;-53
2022/04/02 00:21:59;;;;;;;13.67;12.27;;;;;;;1.62;100.00;94763.00;5029133;28;102397;-51
2022/04/02 00:24:28;;;;;;;13.40;12.03;;;;;;;1.61;100.00;94766.66;5027437;28;105511;-53
2022/04/02 00:26:55;;;;;;;13.23;11.90;;;;;;;1.76;100.00;94763.53;5029333;28;101999;-52
2022/04/02 00:29:22;;;;;;;14.27;12.87;;;;;;;1.85;100.00;94762.91;5027397;28;105407;-50
2022/04/02 00:31:49;;;;;;;14.57;13.07;;;;;;;1.90;100.00;94770.84;5031368;28;102813;-52
2022/04/02 00:34:15;;;;;;;14.30;12.90;;;;;;;1.96;100.00;94763.84;5031198;28;102079;-51
2022/04/02 00:36:42;;;;;;;13.97;12.57;;;;;;;1.96;100.00;94762.03;5034180;28;105101;-53
2022/04/02 00:39:10;;;;;;;14.07;12.67;;;;;;;1.95;100.00;94757.84;5031185;28;101980;-54
2022/04/02 00:41:39;;;;;;;13.57;12.17;;;;;;;2.03;100.00;94767.13;5030967;28;105277;-52
2022/04/02 00:44:12;;;;;;;15.33;13.73;;;;;;;2.06;100.00;94761.41;5030611;28;105328;-53
2022/04/02 00:46:40;;;;;;;14.63;13.13;;;;;;;2.07;100.00;94760.41;5030996;28;101995;-51
2022/04/02 00:49:09;;;;;;;14.57;13.07;;;;;;;2.12;100.00;94763.06;5029951;28;105597;-55
2022/04/02 00:51:41;;;;;;;15.37;13.80;;;;;;;2.10;100.00;94763.34;5030509;28;105050;-54
2022/04/02 00:54:10;;;;;;;13.87;12.37;;;;;;;2.19;100.00;94755.88;5031061;28;101878;-54
2022/04/02 00:56:40;;;;;;;15.47;13.87;;;;;;;2.11;100.00;94757.06;5030993;28;105664;-51
2022/04/02 00:59:08;;;;;;;14.23;12.80;;;;;;;2.11;100.00;94753.63;5034795;28;103270;-54
2022/04/02 01:01:36;;;;;;;15.57;13.97;;;;;;;2.18;100.00;94760.31;5030831;28;104931;-54
2022/04/02 01:04:04;;;;;;;15.80;14.20;;;;;;;2.19;100.00;94759.28;5030094;28;106203;-54
2022/04/02 01:06:39;;;;;;;14.47;12.97;;;;;;;2.32;100.00;94763.41;5032450;27;101677;-54
2022/04/02 01:09:09;;;;;;;15.30;13.70;;;;;;;2.39;100.00;94758.78;5030500;28;105618;-52
2022/04/02 01:11:43;;;;;;;14.93;13.43;;;;;;;2.27;100.00;94755.47;5030226;28;103716;-53
2022/04/02 01:14:11;;;;;;;14.27;12.83;;;;;;;2.29;100.00;94761.28;5032293;28;102158;-51
2022/04/02 01:16:42;;;;;;;15.63;13.93;;;;;;;2.18;100.00;94768.16;5030597;28;105459;-54
2022/04/02 01:19:16;;;;;;;14.27;12.90;;;;;;;2.18;100.00;94768.16;5029725;28;105364;-54
2022/04/02 01:21:45;;;;;;;16.07;14.37;;;;;;;2.14;100.00;94771.50;5033877;28;101787;-51
2022/04/02 01:24:32;;;;;;;16.07;14.37;;;;;;;2.15;100.00;94771.28;5030085;28;105558;-53
2022/04/02 01:26:59;;;;;;;15.53;13.93;;;;;;;2.20;100.00;94773.97;5030582;28;101971;-50
2022/04/02 01:29:32;;;;;;;15.97;14.20;;;;;;;2.23;100.00;94780.56;5030311;28;105298;-52
2022/04/02 01:32:00;;;;;;;15.77;14.07;;;;;;;2.11;100.00;94775.41;5029586;28;105391;-52
2022/04/02 01:34:31;;;;;;;15.80;14.10;;;;;;;2.06;100.00;94779.75;5030500;28;101767;-55
2022/04/02 01:37:06;;;;;;;15.90;14.30;;;;;;;2.12;100.00;94776.19;5030376;28;104814;-53
2022/04/02 01:39:39;;;;;;;16.03;14.20;;;;;;;2.01;100.00;94779.66;5013832;28;105188;-52
2022/04/02 01:42:07;;;;;;;15.53;13.93;;;;;;;1.93;100.00;94773.00;5033400;27;101940;-51
2022/04/02 01:44:49;;;;;;;15.63;14.03;;;;;;;1.92;100.00;94779.25;5029808;28;105319;-52
2022/04/02 01:47:17;;;;;;;15.13;13.63;;;;;;;1.91;100.00;94780.28;5013133;28;102246;-53
2022/04/02 01:49:46;;;;;;;15.97;14.27;;;;;;;1.83;100.00;94778.06;5029893;28;104869;-52
2022/04/02 01:52:16;;;;;;;16.10;14.43;;;;;;;1.90;100.00;94775.28;5029577;28;105723;-52
2022/04/02 01:54:44;;;;;;;16.27;14.57;;;;;;;1.97;100.00;94775.94;5029916;28;101989;-53
2022/04/02 01:57:16;;;;;;;16.27;14.17;;;;;;;2.12;100.00;94776.19;5030067;28;105223;-51
2022/04/02 01:59:44;;;;;;;17.67;15.77;;;;;;;2.06;100.00;94779.75;5029350;28;105049;-51
2022/04/02 02:02:14;;;;;;;15.53;13.93;;;;;;;2.05;100.00;94778.97;5029937;28;102149;-53
2022/04/02 02:04:41;;;;;;;15.80;13.90;;;;;;;2.03;100.00;94777.63;5032851;28;105586;-49
2022/04/02 02:07:09;;;;;;;16.37;14.63;;;;;;;1.95;100.00;94778.00;5029519;28;101951;-53
2022/04/02 02:09:38;;;;;;;16.17;14.47;;;;;;;1.98;100.00;94780.94;5029927;28;105039;-53
2022/04/02 02:12:31;;;;;;;16.17;14.30;;;;;;;1.95;100.00;94783.22;5029128;28;105412;-52
2022/04/02 02:15:07;;;;;;;16.17;14.13;;;;;;;1.94;100.00;94787.69;5029641;28;101850;-51
2022/04/02 02:17:35;;;;;;;16.80;14.83;;;;;;;1.97;100.00;94776.72;5029608;28;103813;-52
2022/04/02 02:20:04;;;;;;;15.33;13.73;;;;;;;2.05;100.00;94784.22;5030709;27;103007;-53
2022/04/02 02:22:31;;;;;;;15.97;14.27;;;;;;;2.08;100.00;94777.72;5029364;28;101794;-53
2022/04/02 02:25:00;;;;;;;17.00;14.63;;;;;;;1.92;100.00;94783.72;5029639;28;104873;-49
2022/04/02 02:27:27;;;;;;;17.00;14.60;;;;;;;1.97;100.00;94778.56;5032391;28;105014;-52
2022/04/02 02:29:54;;;;;;;16.20;14.43;;;;;;;1.98;100.00;94778.31;5029279;28;105048;-50
2022/04/02 02:32:23;;;;;;;16.83;15.03;;;;;;;1.96;100.00;94783.00;5028841;28;105526;-54
2022/04/02 02:37:34;;;;;;;16.10;14.37;;;;;;;2.15;100.00;94789.63;5031019;28;102294;-49
2022/04/02 02:40:11;;;;;;;16.67;14.87;;;;;;;2.19;100.00;94784.72;5028747;28;105723;-52
2022/04/02 02:42:38;;;;;;;16.00;14.27;;;;;;;2.24;100.00;94782.16;5029135;28;101756;-49
2022/04/02 02:45:24;;;;;;;17.53;15.40;;;;;;;2.26;100.00;94783.53;5029287;28;105220;-53
2022/04/02 02:47:57;;;;;;;16.97;15.17;;;;;;;2.18;100.00;94777.88;5028155;28;105068;-50
2022/04/02 02:50:32;;;;;;;19.37;14.87;;;;;;;2.15;100.00;94783.59;5032627;28;101830;-50
2022/04/02 02:53:00;;;;;;;15.43;13.83;;;;;;;2.17;100.00;94777.06;5027864;27;105030;-54
2022/04/02 02:55:29;;;;;;;16.00;14.20;;;;;;;2.10;100.00;94781.69;5029114;28;102037;-52
2022/04/02 02:57:59;;;;;;;16.00;14.13;;;;;;;2.07;100.00;94781.38;5028996;28;104665;-53
2022/04/02 03:00:26;;;;;;;16.90;15.07;;;;;;;1.93;100.00;94785.31;5028398;28;105215;-53
2022/04/02 03:02:58;;;;;;;17.07;14.50;;;;;;;1.93;100.00;94790.56;5028901;28;101780;-53
2022/04/02 03:05:29;;;;;;;15.90;13.83;;;;;;;1.89;100.00;94787.59;5028807;28;104775;-53
2022/04/02 03:08:01;;;;;;;18.07;15.17;;;;;;;1.85;100.00;94793.53;5028457;28;104983;-52
2022/04/02 03:10:44;;;;;;;16.93;14.57;;;;;;;1.81;100.00;94787.97;5028820;28;101822;-52
2022/04/02 03:13:12;;;;;;;17.03;15.10;;;;;;;1.68;100.00;94790.88;5033075;27;102577;-52
2022/04/02 03:15:39;;;;;;;17.10;14.63;;;;;;;1.56;100.00;94792.78;5028505;28;101970;-54
2022/04/02 03:18:10;;;;;;;16.90;14.93;;;;;;;1.53;100.00;94798.47;5028728;28;104890;-52
2022/04/02 03:20:44;;;;;;;17.37;14.67;;;;;;;1.44;100.00;94797.25;5028243;28;105044;-51
2022/04/02 03:23:16;;;;;;;16.53;14.73;;;;;;;1.47;100.00;94794.16;5028423;28;102299;-52
2022/04/02 03:25:44;;;;;;;17.27;14.70;;;;;;;1.31;100.00;94791.50;5030139;28;102321;-51
2022/04/02 03:28:12;;;;;;;17.67;15.13;;;;;;;1.45;100.00;94804.06;5027865;28;104798;-50
2022/04/02 03:30:39;;;;;;;18.70;15.30;;;;;;;1.60;100.00;94800.94;5028488;28;101896;-53
2022/04/02 03:33:07;;;;;;;19.67;16.37;;;;;;;1.51;100.00;94803.16;5029964;28;102314;-48
2022/04/02 03:35:34;;;;;;;20.83;16.93;;;;;;;1.54;100.00;94805.28;5014132;28;101910;-49
2022/04/02 03:38:02;;;;;;;19.77;15.67;;;;;;;1.43;100.00;94807.97;5028375;28;105203;-53
2022/04/02 03:40:29;;;;;;;20.10;16.17;;;;;;;1.48;100.00;94802.81;5027751;28;105553;-53
2022/04/02 03:42:59;;;;;;;18.33;15.37;;;;;;;1.56;100.00;94802.44;5028273;28;101840;-52
2022/04/02 03:45:32;;;;;;;18.77;15.17;;;;;;;1.58;100.00;94811.66;5028168;28;105381;-50
2022/04/02 03:47:59;;;;;;;19.10;15.90;;;;;;;1.64;100.00;94805.47;5027585;28;105201;-51
2022/04/02 03:50:29;;;;;;;19.80;16.33;;;;;;;1.66;100.00;94806.06;5028272;28;101952;-52
2022/04/02 03:52:58;;;;;;;19.43;16.17;;;;;;;1.77;100.00;94813.06;5028414;28;104892;-49
2022/04/02 03:55:35;;;;;;;20.30;16.33;;;;;;;1.60;100.00;94811.44;5030629;28;105581;-51
2022/04/02 03:58:11;;;;;;;21.80;17.13;;;;;;;1.60;100.00;94812.19;5027991;28;105576;-51
2022/04/02 04:00:39;;;;;;;18.77;15.60;;;;;;;1.59;100.00;94809.84;5028945;28;103038;-53
2022/04/02 04:03:10;;;;;;;21.20;17.17;;;;;;;1.66;100.00;94819.16;5028072;28;101882;-50
2022/04/02 04:05:43;;;;;;;21.50;16.53;;;;;;;1.54;100.00;94817.59;5026841;28;105100;-50
2022/04/02 04:08:11;;;;;;;19.53;16.07;;;;;;;1.51;100.00;94818.84;5027478;28;105740;-52
2022/04/02 04:10:42;;;;;;;19.60;15.37;;;;;;;1.63;100.00;94821.41;5027737;28;102034;-52
2022/04/02 04:13:11;;;;;;;20.57;17.00;;;;;;;1.62;100.00;94825.06;5027878;28;105136;-52
2022/04/02 04:15:40;;;;;;;19.90;16.43;;;;;;;1.59;100.00;94825.56;5026992;28;105307;-52
2022/04/02 04:18:09;;;;;;;21.37;16.70;;;;;;;1.59;100.00;94825.56;5031270;28;101911;-54
2022/04/02 04:20:37;;;;;;;18.67;15.70;;;;;;;1.63;100.00;94826.66;5027152;28;106113;-53
2022/04/02 04:23:07;;;;;;;18.73;15.43;;;;;;;1.62;100.00;94819.84;5027666;28;101811;-53
2022/04/02 04:25:35;;;;;;;20.17;16.50;;;;;;;1.64;100.00;94823.81;5027716;28;104869;-54
2022/04/02 04:28:03;;;;;;;19.00;15.63;;;;;;;1.56;100.00;94828.63;5027227;28;105029;-53
2022/04/02 04:30:34;;;;;;;18.70;15.67;;;;;;;1.62;100.00;94831.13;5027602;28;101838;-53
2022/04/02 04:33:02;;;;;;;19.03;15.20;;;;;;;1.68;100.00;94826.75;5029306;28;102291;-52
2022/04/02 04:35:30;;;;;;;18.63;15.43;;;;;;;1.72;100.00;94830.50;5027012;28;105824;-52
2022/04/02 04:37:57;;;;;;;19.03;16.83;;;;;;;1.70;100.00;94840.44;5027535;28;101952;-51
2022/04/02 04:40:28;;;;;;;19.90;15.70;;;;;;;1.72;100.00;94838.38;5030258;28;105113;-53
2022/04/02 04:42:56;;;;;;;21.33;16.80;;;;;;;1.75;100.00;94830.84;5027450;28;101829;-51
2022/04/02 04:45:33;;;;;;;20.23;16.90;;;;;;;1.60;100.00;94835.78;5027429;28;105125;-52
2022/04/02 04:48:02;;;;;;;21.07;16.73;;;;;;;1.57;100.00;94838.06;5026369;28;105067;-52
2022/04/02 04:50:33;;;;;;;21.77;16.97;;;;;;;1.58;100.00;94837.84;5027445;28;101824;-51
2022/04/02 04:53:02;;;;;;;22.17;16.80;;;;;;;1.57;100.00;94844.13;5027225;28;105781;-52
2022/04/02 04:55:29;;;;;;;20.97;15.83;;;;;;;1.58;100.00;94839.69;5026455;28;105149;-53
2022/04/02 04:57:58;;;;;;;20.57;16.30;;;;;;;1.59;100.00;94836.81;5027333;28;101879;-51
2022/04/02 05:00:28;;;;;;;19.83;16.50;;;;;;;1.56;100.00;94846.97;5027234;28;105716;-51
2022/04/02 05:02:58;;;;;;;18.97;15.77;;;;;;;1.69;100.00;94847.50;5029844;28;105360;-52
2022/04/02 05:05:42;;;;;;;22.20;17.60;;;;;;;1.72;100.00;94854.09;5027362;28;105039;-51
2022/04/02 05:08:13;;;;;;;21.53;16.40;;;;;;;1.71;100.00;94850.66;5026684;28;104018;-50
2022/04/02 05:10:42;;;;;;;21.30;15.70;;;;;;;1.72;100.00;94859.34;5026955;28;101969;-54
2022/04/02 05:13:14;;;;;;;19.20;16.00;;;;;;;1.62;100.00;94852.06;5027035;28;105247;-51
2022/04/02 05:15:42;;;;;;;18.93;15.13;;;;;;;1.70;100.00;94856.16;5026276;28;103782;-50
2022/04/02 05:18:13;;;;;;;18.20;15.43;;;;;;;1.58;100.00;94861.41;5030195;28;101837;-51
2022/04/02 05:20:41;;;;;;;20.03;15.93;;;;;;;1.61;100.00;94860.16;5030567;28;105131;-51
2022/04/02 05:23:09;;;;;;;19.17;15.83;;;;;;;1.68;100.00;94866.06;5013425;28;104009;-51
2022/04/02 05:25:38;;;;;;;18.10;14.83;;;;;;;1.76;100.00;94871.72;5033760;28;101869;-52
2022/04/02 05:28:07;;;;;;;18.60;15.13;;;;;;;1.73;100.00;94880.06;5030013;28;104927;-50
2022/04/02 05:30:36;;;;;;;19.53;16.03;;;;;;;1.74;100.00;94875.59;5030031;28;101866;-52
2022/04/02 05:33:03;;;;;;;17.53;14.63;;;;;;;1.76;100.00;94873.56;5030359;28;103461;-52
2022/04/02 05:35:32;;;;;;;18.90;15.73;;;;;;;1.78;100.00;94880.16;5029881;28;105684;-53
2022/04/02 05:37:59;;;;;;;20.60;16.10;;;;;;;1.77;100.00;94880.41;5030282;28;102296;-53
2022/04/02 05:40:27;;;;;;;20.13;15.93;;;;;;;1.77;100.00;94883.00;5030160;28;105186;-52
2022/04/02 05:42:54;;;;;;;19.80;15.90;;;;;;;1.60;100.00;94885.53;5029310;28;105984;-52
2022/04/02 05:45:21;;;;;;;21.17;16.27;;;;;;;1.68;100.00;94887.81;5033560;28;101917;-54
2022/04/02 05:47:50;;;;;;;20.50;17.10;;;;;;;1.64;100.00;94885.91;5029334;28;104250;-51
2022/04/02 05:50:18;;;;;;;21.93;18.37;;;;;;;1.63;100.00;94890.34;5031401;27;101834;-54
2022/04/02 05:52:49;;;;;;;23.37;19.43;;;;;;;1.58;100.00;94892.06;5031689;27;102471;-49
2022/04/02 05:55:17;;;;;;;24.37;19.17;;;;;;;1.52;100.00;94895.59;5030927;27;103039;-56
2022/04/02 05:57:45;;;;;;;27.20;23.03;;;;;;;1.39;100.00;94903.72;5031430;27;101654;-56
2022/04/02 06:00:15;;;;;;;28.83;22.40;;;;;;;1.36;100.00;94906.78;5031411;27;102399;-51
2022/04/02 06:02:43;;;;;;;25.70;21.03;;;;;;;1.40;100.00;94911.34;5030847;28;102885;-56
2022/04/02 06:05:12;;;;;;;27.23;22.20;;;;;;;1.38;100.00;94912.59;5029470;28;101993;-55
2022/04/02 06:07:39;;;;;;;27.13;21.37;;;;;;;1.33;100.00;94915.91;5034021;27;102356;-52
2022/04/02 06:10:09;;;;;;;25.97;21.47;;;;;;;1.42;100.00;94918.97;5031271;28;101696;-54
2022/04/02 06:12:37;;;;;;;26.37;21.50;;;;;;;1.40;100.00;94921.00;5031059;28;101729;-55
2022/04/02 06:15:06;;;;;;;26.60;22.37;;;;;;;1.38;100.00;94923.06;5030018;27;103636;-54
2022/04/02 06:17:32;;;;;;;27.83;23.53;;;;;;;1.44;100.00;94922.16;5029225;28;101879;-53
2022/04/02 06:19:59;;;;;;;29.40;22.47;;;;;;;1.49;100.00;94925.66;5031129;28;102310;-53
2022/04/02 06:22:26;;;;;;;27.37;22.53;;;;;;;1.59;100.00;94930.34;5030279;27;102599;-55
2022/04/02 06:24:53;;;;;;;29.30;23.70;;;;;;;1.62;100.00;94929.84;5030878;28;101898;-57
2022/04/02 06:27:22;;;;;;;26.13;22.17;;;;;;;1.53;100.00;94933.88;5029200;27;103532;-55
2022/04/02 06:29:49;;;;;;;28.90;23.07;;;;;;;1.59;100.00;94930.34;5031289;28;107000;-55
2022/04/02 06:32:17;;;;;;;28.47;22.27;;;;;;;1.52;100.00;94932.25;5029343;28;104915;-56
2022/04/02 06:34:44;;;;;;;25.17;20.70;;;;;;;1.47;100.00;94938.19;5028857;28;105038;-57
2022/04/02 06:37:12;;;;;;;25.77;20.23;;;;;;;1.58;100.00;94941.84;5029204;28;101859;-57
2022/04/02 06:39:39;;;;;;;25.30;20.73;;;;;;;1.63;100.00;94939.31;5030791;28;102981;-56
2022/04/02 06:42:07;;;;;;;23.17;20.20;;;;;;;1.60;100.00;94939.78;5029792;28;102848;-56
2022/04/02 06:44:43;;;;;;;23.10;19.37;;;;;;;1.50;100.00;94942.19;5029241;28;101906;-57
2022/04/02 06:47:11;;;;;;;19.87;17.20;;;;;;;1.23;100.00;94951.53;5030669;28;102329;-56
2022/04/02 06:49:39;;;;;;;20.93;16.90;;;;;;;1.33;100.00;94947.34;5027981;28;105349;-54
2022/04/02 06:52:06;;;;;;;22.47;17.70;;;;;;;1.43;100.00;94949.38;5033581;28;101842;-55
2022/04/02 06:54:33;;;;;;;19.20;16.37;;;;;;;1.45;100.00;94949.94;5029840;28;102613;-54
2022/04/02 06:57:00;;;;;;;18.73;16.00;;;;;;;1.34;100.00;94954.16;5030548;28;102162;-56
2022/04/02 06:59:27;;;;;;;17.50;15.17;;;;;;;1.31;100.00;94964.28;5029140;28;103621;-57
2022/04/02 07:01:56;;;;;;;19.93;15.97;;;;;;;1.35;100.00;94957.56;5028192;28;105048;-56
2022/04/02 07:04:23;;;;;;;17.33;15.33;;;;;;;1.34;100.00;94963.81;5028940;28;101910;-57
2022/04/02 07:06:51;;;;;;;18.87;16.13;;;;;;;1.31;100.00;94972.94;5028719;28;105486;-55
2022/04/02 07:09:18;;;;;;;18.13;13.83;;;;;;;1.19;100.00;94972.13;5028223;28;105769;-54
2022/04/02 07:11:45;;;;;;;17.83;14.80;;;;;;;1.26;100.00;94978.03;5028711;28;101958;-56
2022/04/02 07:14:12;;;;;;;18.33;14.87;;;;;;;1.32;100.00;94986.81;5033438;28;102804;-56
2022/04/02 07:16:39;;;;;;;16.27;14.57;;;;;;;1.35;100.00;94997.63;5028372;28;102017;-57
2022/04/02 07:19:09;;;;;;;18.37;15.30;;;;;;;1.33;100.00;94991.03;5028843;28;105683;-56
2022/04/02 07:21:36;;;;;;;20.37;15.73;;;;;;;1.20;100.00;94993.88;5028052;28;105142;-57
2022/04/02 07:24:03;;;;;;;17.70;15.33;;;;;;;1.19;100.00;95003.53;5028635;28;101883;-57
2022/04/02 07:26:32;;;;;;;17.03;15.10;;;;;;;1.17;100.00;95005.59;5028585;28;105090;-56
2022/04/02 07:29:00;;;;;;;17.17;14.53;;;;;;;1.17;100.00;95008.22;5028169;28;105007;-56
2022/04/02 07:31:28;;;;;;;17.40;14.73;;;;;;;1.26;100.00;95011.31;5028478;28;101858;-58
2022/04/02 07:33:55;;;;;;;19.27;16.07;;;;;;;1.45;100.00;95012.78;5028459;28;105250;-55
2022/04/02 07:36:38;;;;;;;17.90;15.57;;;;;;;1.39;100.00;95018.94;5031345;28;105660;-56
2022/04/02 07:39:06;;;;;;;19.63;16.43;;;;;;;1.52;100.00;95032.59;5028189;28;105216;-56
2022/04/02 07:41:40;;;;;;;23.37;16.53;;;;;;;1.38;100.00;95027.81;5027778;28;105806;-55
2022/04/02 07:44:18;;;;;;;21.43;16.87;;;;;;;1.30;100.00;95042.03;5028178;28;101922;-53
2022/04/02 07:46:48;;;;;;;21.77;16.40;;;;;;;1.31;100.00;95037.59;5028208;28;105628;-57
2022/04/02 07:49:20;;;;;;;22.20;17.13;;;;;;;1.29;100.00;95034.41;5026980;28;105557;-55
2022/04/02 07:51:53;;;;;;;22.53;18.00;;;;;;;1.46;100.00;95043.19;5028177;28;101934;-57
2022/04/02 07:54:23;;;;;;;20.03;15.13;;;;;;;1.34;100.00;95042.38;5028110;28;105427;-57
2022/04/02 07:56:51;;;;;;;21.37;15.57;;;;;;;1.24;100.00;95040.31;5031148;28;105297;-57
2022/04/02 07:59:24;;;;;;;17.57;14.77;;;;;;;1.23;100.00;95043.97;5027970;28;104853;-57
2022/04/02 08:01:52;;;;;;;20.27;15.53;;;;;;;1.23;100.00;95053.63;5027705;28;105418;-56
2022/04/02 08:04:22;;;;;;;18.80;14.77;;;;;;;1.34;100.00;95055.47;5027973;28;102073;-54
2022/04/02 08:06:53;;;;;;;17.60;15.13;;;;;;;1.42;100.00;95058.56;5027886;28;106403;-57
2022/04/02 08:09:26;;;;;;;18.47;14.80;;;;;;;1.40;100.00;95065.03;5027450;28;105711;-57
2022/04/02 08:11:55;;;;;;;18.00;15.83;;;;;;;1.42;100.00;95060.38;5027981;28;101829;-57
2022/04/02 08:14:23;;;;;;;20.80;16.50;;;;;;;1.47;100.00;95068.34;5027771;28;105167;-56
2022/04/02 08:16:52;;;;;;;19.30;16.10;;;;;;;1.73;100.00;95070.53;5027212;28;105138;-56
2022/04/02 08:19:23;;;;;;;21.97;15.50;;;;;;;1.57;100.00;95068.59;5032719;27;101800;-57
2022/04/02 08:21:57;;;;;;;21.30;15.97;;;;;;;1.40;100.00;95078.94;5027134;28;106258;-57
2022/04/02 08:24:25;;;;;;;18.63;15.10;;;;;;;1.38;100.00;95082.81;5027743;28;101823;-57
2022/04/02 08:27:01;;;;;;;19.97;15.83;;;;;;;1.44;100.00;95080.09;5027789;28;104804;-55
2022/04/02 08:29:53;;;;;;;18.23;15.07;;;;;;;1.30;100.00;95085.72;5027233;28;105161;-57
2022/04/02 08:32:32;;;;;;;17.30;14.87;;;;;;;1.40;100.00;95093.84;5029057;28;101803;-56
2022/04/02 08:35:10;;;;;;;22.87;15.47;;;;;;;1.41;100.00;95095.44;5027749;28;105137;-55
2022/04/02 08:38:16;;;;;;;20.17;14.80;;;;;;;1.54;100.00;95096.03;5027101;28;105370;-57
2022/04/02 08:41:18;;;;;;;19.40;15.00;;;;;;;1.72;100.00;95097.75;5027387;28;101880;-57
2022/04/02 08:44:15;;;;;;;23.43;15.50;;;;;;;1.47;100.00;95110.25;5030302;28;106062;-57
2022/04/02 08:47:05;;;;;;;20.77;15.67;;;;;;;1.47;100.00;95115.47;5006372;28;102034;-56
2022/04/02 08:49:41;;;;;;;18.73;15.20;;;;;;;1.43;100.00;95114.34;5028457;27;102882;-52
2022/04/02 08:52:41;;;;;;;20.03;17.07;;;;;;;1.49;100.00;95121.31;5028570;27;105382;-56
2022/04/02 08:55:21;;;;;;;21.03;15.57;;;;;;;1.46;100.00;95127.78;5030673;28;101883;-57
2022/04/02 08:58:06;;;;;;;20.30;15.27;;;;;;;1.60;100.00;95131.78;5030886;28;105116;-55
2022/04/02 09:00:40;;;;;;;20.53;16.53;;;;;;;1.65;100.00;95131.13;5030116;28;105840;-55
2022/04/02 09:03:34;;;;;;;19.70;15.80;;;;;;;1.64;100.00;95140.03;5030732;28;102199;-57
2022/04/02 09:06:22;;;;;;;18.87;14.33;;;;;;;1.63;100.00;95138.41;5030834;28;105109;-56
2022/04/02 09:09:06;;;;;;;21.77;15.43;;;;;;;1.70;100.00;95142.53;5033884;28;106090;-55
2022/04/02 09:12:14;;;;;;;20.60;16.70;;;;;;;1.82;100.00;95150.41;5030683;28;105115;-55
2022/04/02 09:15:10;;;;;;;21.63;15.93;;;;;;;1.98;100.00;95149.75;5024526;28;105798;-55
2022/04/02 09:17:43;;;;;;;23.10;16.53;;;;;;;2.08;100.00;95155.22;5030357;28;101876;-55
2022/04/02 09:20:21;;;;;;;22.83;16.27;;;;;;;2.30;100.00;95157.03;5030653;28;105186;-55
2022/04/02 09:23:07;;;;;;;20.60;16.63;;;;;;;2.41;100.00;95155.44;5029995;28;105684;-54
2022/04/02 09:26:11;;;;;;;20.30;15.97;;;;;;;2.44;100.00;95160.22;5030211;28;101811;-57
2022/04/02 09:28:47;;;;;;;16.63;14.83;;;;;;;2.66;100.00;95161.19;5030610;28;104643;-55
2022/04/02 09:31:50;;;;;;;20.27;15.10;;;;;;;2.52;100.00;95162.50;5029732;28;105778;-55
2022/04/02 09:34:57;;;;;;;17.20;13.93;;;;;;;2.24;100.00;95157.94;5034092;28;101815;-55
2022/04/02 09:37:53;;;;;;;16.20;13.33;;;;;;;2.27;100.00;95154.88;5029830;28;105388;-57
2022/04/02 09:40:31;;;;;;;17.33;13.60;;;;;;;2.75;100.00;95159.81;5029854;28;101956;-57
2022/04/02 09:43:06;;;;;;;18.20;13.90;;;;;;;2.74;100.00;95161.63;5030248;28;103504;-55
2022/04/02 09:45:44;;;;;;;17.53;14.00;;;;;;;3.31;100.00;95163.31;5029434;28;105509;-55
2022/04/02 09:48:18;;;;;;;20.70;15.13;;;;;;;3.07;100.00;95167.03;5029822;28;101834;-56
2022/04/02 09:50:55;;;;;;;20.57;14.33;;;;;;;3.09;100.00;95175.50;5030335;28;105418;-55
2022/04/02 09:53:26;;;;;;;30.10;21.57;;;;;;;3.18;100.00;95173.28;5029433;28;105325;-57
2022/04/02 09:56:15;;;;;;;29.57;19.90;;;;;;;3.58;100.00;95176.66;5029900;28;102326;-53
2022/04/02 09:59:00;;;;;;;16.37;14.20;;;;;;;3.54;100.00;95168.44;5032920;28;105663;-57
2022/04/02 10:01:31;;;;;;;16.00;13.07;;;;;;;3.64;100.00;95183.56;5029568;28;101864;-53
2022/04/02 10:04:01;;;;;;;16.03;14.00;;;;;;;3.70;100.00;95174.75;5028318;27;106550;-55
2022/04/02 10:06:35;;;;;;;16.60;14.17;;;;;;;3.62;100.00;95175.16;5029252;28;106665;-56
2022/04/02 10:09:07;;;;;;;14.37;12.33;;;;;;;3.22;100.00;95195.44;5029695;28;102131;-54
2022/04/02 10:11:36;;;;;;;15.17;12.90;;;;;;;2.83;100.00;95193.56;5031167;27;102279;-57
2022/04/02 10:14:06;;;;;;;14.07;11.67;;;;;;;2.43;100.00;95195.34;5029072;28;105885;-55
2022/04/02 10:16:33;;;;;;;11.67;10.47;;;;;;;2.09;100.00;95204.00;5031003;28;101889;-56
2022/04/02 10:19:02;;;;;;;13.00;10.60;;;;;;;2.09;100.00;95210.03;5033635;28;102423;-57
2022/04/02 10:21:36;;;;;;;12.50;11.20;;;;;;;1.97;100.00;95211.84;5029545;28;101774;-57
2022/04/02 10:24:09;;;;;;;13.50;10.53;;;;;;;2.08;100.00;95213.69;5029249;28;105166;-56
2022/04/02 10:26:39;;;;;;;14.80;12.60;;;;;;;2.08;100.00;95215.53;5029128;28;104943;-56
2022/04/02 10:29:12;;;;;;;13.20;11.70;;;;;;;2.29;100.00;95222.84;5029516;28;102281;-57
2022/04/02 10:31:50;;;;;;;13.10;11.67;;;;;;;2.10;100.00;95221.31;5029521;28;105147;-56
2022/04/02 10:34:27;;;;;;;16.17;12.40;;;;;;;1.83;100.00;95222.75;5028838;28;104650;-55
2022/04/02 10:37:07;;;;;;;15.43;13.07;;;;;;;1.86;100.00;95230.97;5029106;28;101869;-55
2022/04/02 10:39:41;;;;;;;16.17;12.83;;;;;;;1.84;100.00;95232.22;5029375;28;105431;-56
2022/04/02 10:42:11;;;;;;;15.30;12.50;;;;;;;2.42;100.00;95241.78;5032189;28;105899;-57
2022/04/02 10:44:46;;;;;;;14.70;12.57;;;;;;;2.04;100.00;95224.84;5030877;28;102518;-55
2022/04/02 10:47:16;;;;;;;15.00;13.40;;;;;;;2.10;100.00;95227.38;5030094;28;102759;-57
2022/04/02 10:49:50;;;;;;;15.83;13.40;;;;;;;1.87;100.00;95226.53;5028455;28;101868;-57
2022/04/02 10:52:22;;;;;;;16.07;13.73;;;;;;;2.09;100.00;95235.47;5029211;28;106009;-55
2022/04/02 10:54:50;;;;;;;17.37;15.00;;;;;;;2.23;100.00;95240.28;5028311;28;105138;-56
2022/04/02 10:57:18;;;;;;;15.97;14.00;;;;;;;2.00;100.00;95245.47;5029071;28;102095;-55
2022/04/02 10:59:48;;;;;;;17.67;14.70;;;;;;;2.02;100.00;95247.88;5030183;27;103929;-55
2022/04/02 11:02:22;;;;;;;17.47;15.03;;;;;;;1.84;100.00;95243.50;5029745;28;102638;-55
2022/04/02 11:04:58;;;;;;;20.10;14.27;;;;;;;1.56;100.00;95256.41;5033689;27;101831;-57
2022/04/02 11:07:29;;;;;;;23.17;16.47;;;;;;;1.83;100.00;95249.78;5029608;28;104614;-56
2022/04/02 11:09:58;;;;;;;19.60;14.77;;;;;;;1.55;100.00;95259.25;5030443;28;101668;-57
2022/04/02 11:12:29;;;;;;;19.60;15.37;;;;;;;1.60;100.00;95256.75;5030089;28;102623;-54
2022/04/02 11:15:07;;;;;;;18.97;14.70;;;;;;;1.73;100.00;95267.03;5029281;28;103022;-57
2022/04/02 11:17:36;;;;;;;17.80;13.83;;;;;;;1.73;100.00;95262.63;5030304;27;101766;-56
2022/04/02 11:20:06;;;;;;;16.13;14.23;;;;;;;1.72;100.00;95270.69;5011929;28;106678;-56
2022/04/02 11:22:48;;;;;;;21.10;14.57;;;;;;;1.75;100.00;95265.03;5028301;28;103782;-56
2022/04/02 11:25:19;;;;;;;20.37;14.37;;;;;;;1.71;100.00;95269.09;5028575;28;101776;-55
2022/04/02 11:27:51;;;;;;;16.47;13.47;;;;;;;1.65;100.00;95270.00;5032821;28;102322;-54
2022/04/02 11:30:20;;;;;;;17.90;13.53;;;;;;;1.75;100.00;95270.25;5028445;28;101920;-55
2022/04/02 11:32:50;;;;;;;17.83;13.90;;;;;;;1.81;100.00;95274.59;5028561;28;105591;-57
2022/04/02 11:35:19;;;;;;;17.13;13.40;;;;;;;1.73;100.00;95278.34;5027974;28;105950;-57